C. Angelo — WCZ5866 — position and weather

sailwx.info

Track history (hours):
 
Tides and Currents Weather Stations Pressure Air Temp Water Temp Dewpoint Dewpoint Depression Visibility Wind Speed Wind Dir Waves Ship Positions

C. Angelo

Owner: G T 110 INC, NEW HAVEN, CT. More information available from US FCC via Universal Licensing System and Coast Guard Vessel Documentation Center.

Last reported at 2016-Jun-27 08:33 UTC. Time now 2016-Jun-27 09:35 UTC.
Position N 40°29' W 073°56'.

Length 30 m; draft 4 m.

Type: Tug. MMSI: 366988420.

Date/timePositionNaut miles runAvg speedWind from/ knotsBaromVisibWave heightAir tempDewpointWater temp
2016-Jun-27 08:33N 40°29' W 073°56'6 6.5
2016-Jun-27 07:34N 40°23' W 073°54'6 6.3
2016-Jun-27 06:34N 40°16' W 073°54'7 6.5
2016-Jun-27 05:33N 40°10' W 073°54'7 6.6
2016-Jun-27 04:34N 40°03' W 073°55'7 6.8
2016-Jun-27 03:33N 39°57' W 073°56'7 6.6
2016-Jun-27 02:34N 39°50' W 073°58'6 6.5
2016-Jun-27 01:33N 39°44' W 073°60'7 6.7
2016-Jun-27 00:33N 39°39' W 074°05'7 6.6
2016-Jun-26 23:33N 39°33' W 074°10'7 6.8
2016-Jun-26 22:33N 39°27' W 074°14'7 6.6
2016-Jun-26 21:33N 39°22' W 074°19'7 6.8
2016-Jun-26 20:33N 39°17' W 074°25'7 7.0
2016-Jun-26 19:33N 39°11' W 074°30'7 6.9
2016-Jun-26 18:33N 39°05' W 074°35'7 6.6
2016-Jun-26 17:33N 39°00' W 074°40'7 6.6
2016-Jun-26 16:33N 38°55' W 074°45'7 6.9
2016-Jun-26 15:33N 38°50' W 074°51'6 6.4
2016-Jun-26 14:33N 38°48' W 074°59'6 5.8
2016-Jun-26 13:33N 38°52' W 075°05'8 7.6
2016-Jun-26 12:33N 38°59' W 075°08'9 8.8
2016-Jun-26 11:33N 39°07' W 075°13'9 9.3
2016-Jun-26 10:33N 39°15' W 075°20'9 8.9
2016-Jun-26 09:33N 39°22' W 075°27'7 7.4
2016-Jun-26 08:33N 39°27' W 075°34'5 5.3
2016-Jun-26 07:33N 39°33' W 075°33'2 2.2
2016-Jun-26 06:33N 39°33' W 075°35'6 6.2
2016-Jun-26 05:33N 39°33' W 075°43'7 7.2
2016-Jun-26 04:33N 39°31' W 075°52'7 7.1
2016-Jun-26 03:33N 39°27' W 075°60'7 6.5
2016-Jun-26 02:33N 39°23' W 076°06'7 7.0
2016-Jun-26 01:33N 39°19' W 076°13'7 6.9
2016-Jun-26 00:33N 39°12' W 076°16'5 5.2
2016-Jun-25 23:30N 39°09' W 076°22'6 6.0
2016-Jun-25 22:33N 39°12' W 076°29'1 1.0
2016-Jun-25 21:33N 39°13' W 076°29'0 0.0
2016-Jun-25 20:33N 39°13' W 076°29'0 0.0
2016-Jun-25 19:33N 39°13' W 076°29'0 0.0
2016-Jun-25 18:33N 39°13' W 076°29'0 0.0
2016-Jun-25 17:33N 39°13' W 076°29'0 0.0
2016-Jun-25 16:33N 39°13' W 076°29'0 0.0
2016-Jun-25 15:33N 39°13' W 076°29'0 0.0
2016-Jun-25 14:33N 39°13' W 076°29'0 0.0
2016-Jun-25 13:33N 39°13' W 076°29'0 0.0
2016-Jun-25 12:33N 39°13' W 076°29'0 0.0
2016-Jun-25 11:33N 39°13' W 076°29'0 0.0
2016-Jun-25 10:33N 39°13' W 076°29'0 0.0
2016-Jun-25 09:33N 39°13' W 076°29'0 0.0
2016-Jun-25 08:33N 39°13' W 076°29'0 0.0
2016-Jun-25 07:33N 39°13' W 076°29'0 0.0
2016-Jun-25 06:33N 39°13' W 076°29'0 0.0
2016-Jun-25 05:33N 39°13' W 076°29'0 0.0
2016-Jun-25 04:33N 39°13' W 076°29'0 0.0
2016-Jun-25 03:33N 39°13' W 076°29'0 0.0
2016-Jun-25 02:33N 39°13' W 076°29'0 0.0
2016-Jun-25 01:33N 39°13' W 076°29'0 0.0
2016-Jun-25 00:33N 39°13' W 076°29'0 0.0
2016-Jun-24 23:33N 39°13' W 076°29'0 0.0
2016-Jun-24 22:33N 39°13' W 076°29'0 0.0
2016-Jun-24 21:33N 39°13' W 076°29'0 0.0
2016-Jun-24 20:33N 39°13' W 076°29'0 0.0
2016-Jun-24 19:33N 39°13' W 076°29'0 0.0
2016-Jun-24 18:33N 39°13' W 076°29'0 0.0
2016-Jun-24 17:33N 39°13' W 076°29'0 0.0
2016-Jun-24 16:33N 39°13' W 076°29'0 0.0
2016-Jun-24 15:33N 39°13' W 076°29'0 0.0
2016-Jun-24 14:33N 39°13' W 076°29'0 0.0
2016-Jun-24 13:33N 39°13' W 076°29'0 0.0
2016-Jun-24 12:33N 39°13' W 076°29'0 0.0
2016-Jun-24 11:33N 39°13' W 076°29'1 0.9
2016-Jun-24 10:33N 39°12' W 076°29'5 5.3
2016-Jun-24 09:33N 39°10' W 076°23'3 2.7
2016-Jun-24 08:29N 39°08' W 076°19'8 8.8
2016-Jun-24 07:33N 39°15' W 076°14'25 8.4
2016-Jun-24 04:33N 39°32' W 075°50'8 7.7
2016-Jun-24 03:33N 39°33' W 075°40'6 5.7
2016-Jun-24 02:33N 39°31' W 075°33'9 8.6
2016-Jun-24 01:33N 39°23' W 075°29'9 8.9
2016-Jun-24 00:33N 39°17' W 075°21'9 8.7
2016-Jun-23 23:33N 39°10' W 075°15'9 8.9
2016-Jun-23 22:33N 39°02' W 075°09'50 6.2
2016-Jun-23 14:29N 39°28' W 074°14'10 9.1
2016-Jun-23 13:25N 39°36' W 074°06'8 9.1
2016-Jun-23 12:33N 39°42' W 074°00'9 8.9
2016-Jun-23 11:33N 39°51' W 073°58'9 9.1
2016-Jun-23 10:33N 39°60' W 073°56'9 9.3
2016-Jun-23 09:33N 40°09' W 073°54'19 9.1
2016-Jun-23 07:31N 40°28' W 073°55'15 7.7
2016-Jun-23 05:33N 40°43' W 073°59'1 0.0
2016-Jun-21 21:33N 40°44' W 073°58'1 1.2
2016-Jun-21 20:33N 40°42' W 073°58'0 0.0
2016-Jun-21 19:33N 40°42' W 073°58'0 0.0
2016-Jun-21 18:31N 40°42' W 073°58'0 0.0
2016-Jun-21 17:32N 40°42' W 073°58'0 0.0
2016-Jun-21 16:32N 40°42' W 073°58'0 0.0
2016-Jun-21 15:33N 40°42' W 073°58'0 0.0
2016-Jun-21 14:33N 40°42' W 073°58'0 0.0
2016-Jun-21 13:31N 40°42' W 073°58'0 0.0
2016-Jun-21 12:33N 40°42' W 073°58'0 0.0
2016-Jun-21 11:32N 40°42' W 073°58'0 0.0
2016-Jun-21 10:33N 40°42' W 073°58'0 0.0
2016-Jun-21 09:34N 40°42' W 073°58'0 0.0
2016-Jun-21 08:31N 40°42' W 073°58'0 0.0
2016-Jun-21 07:31N 40°42' W 073°58'0 0.0
2016-Jun-21 06:34N 40°42' W 073°58'0 0.0
2016-Jun-21 04:34N 40°42' W 073°58'0 0.0
2016-Jun-21 03:34N 40°42' W 073°58'0 0.0
2016-Jun-21 02:34N 40°42' W 073°58'0 0.0
2016-Jun-21 01:34N 40°42' W 073°58'0 0.0
2016-Jun-21 00:34N 40°42' W 073°58'0 0.0
2016-Jun-20 23:33N 40°42' W 073°58'0 0.0
2016-Jun-20 22:34N 40°42' W 073°58'0 0.0
2016-Jun-20 21:33N 40°42' W 073°58'0 0.0
2016-Jun-20 20:33N 40°42' W 073°58'0 0.0
2016-Jun-20 19:34N 40°42' W 073°58'0 0.0
2016-Jun-20 18:34N 40°42' W 073°58'0 0.0
2016-Jun-20 17:34N 40°42' W 073°58'0 0.0
2016-Jun-20 16:34N 40°42' W 073°58'0 0.0
2016-Jun-20 15:34N 40°42' W 073°58'0 0.3
2016-Jun-20 14:34N 40°42' W 073°59'5 5.3
2016-Jun-20 13:34N 40°39' W 074°03'4 3.8
2016-Jun-20 12:34N 40°35' W 074°01'1 0.5
2016-Jun-20 11:34N 40°36' W 074°02'0 0.2
2016-Jun-20 10:33N 40°35' W 074°02'0 0.5
2016-Jun-20 09:33N 40°35' W 074°02'5 5.5
2016-Jun-20 08:33N 40°30' W 073°58'18 6.0
2016-Jun-20 05:33N 40°13' W 073°54'6 6.0
2016-Jun-20 04:33N 40°07' W 073°54'14 6.0
2016-Jun-20 02:18N 39°53' W 073°57'5 6.2
2016-Jun-20 01:33N 39°49' W 073°58'6 6.5
2016-Jun-20 00:33N 39°43' W 074°00'6 6.4
2016-Jun-19 23:33N 39°37' W 074°05'6 6.4
2016-Jun-19 22:33N 39°32' W 074°10'6 6.3
2016-Jun-19 21:33N 39°27' W 074°14'6 6.1
2016-Jun-19 20:33N 39°22' W 074°19'44 6.1
2016-Jun-19 13:18N 38°48' W 074°56'4 5.7
2016-Jun-19 12:34N 38°49' W 075°01'5 5.2
2016-Jun-19 11:33N 38°53' W 075°04'6 5.9
2016-Jun-19 10:33N 38°59' W 075°07'7 6.8
2016-Jun-19 09:33N 39°05' W 075°11'8 7.9
2016-Jun-19 08:34N 39°11' W 075°17'9 9.5
2016-Jun-19 07:33N 39°19' W 075°24'10 9.9
2016-Jun-19 06:34N 39°26' W 075°33'7 6.7
2016-Jun-19 05:34N 39°33' W 075°33'3 3.4
2016-Jun-19 04:34N 39°33' W 075°37'4 4.3
2016-Jun-19 03:34N 39°33' W 075°43'5 4.7
2016-Jun-19 02:34N 39°32' W 075°49'6 5.5
2016-Jun-19 01:34N 39°30' W 075°56'6 6.5
2016-Jun-19 00:34N 39°25' W 076°01'7 6.7
2016-Jun-18 23:34N 39°22' W 076°09'7 6.7
2016-Jun-18 22:33N 39°16' W 076°14'7 6.6
2016-Jun-18 21:33N 39°10' W 076°18'4 4.5
2016-Jun-18 20:33N 39°10' W 076°23'6 6.0
2016-Jun-18 19:33N 39°12' W 076°31'5 4.8
2016-Jun-18 18:28N 39°16' W 076°35'0 0.0
2016-Jun-18 17:28N 39°16' W 076°35'0 0.0
2016-Jun-18 16:33N 39°16' W 076°35'0 0.0
2016-Jun-18 15:33N 39°16' W 076°35'0 0.0
2016-Jun-18 14:33N 39°16' W 076°35'0 0.0
2016-Jun-18 13:33N 39°16' W 076°35'0 0.0
2016-Jun-18 12:33N 39°16' W 076°35'0 0.0
2016-Jun-18 11:33N 39°16' W 076°35'0 0.0
2016-Jun-18 10:33N 39°16' W 076°35'0 0.0
2016-Jun-18 09:24N 39°16' W 076°35'0 0.0
2016-Jun-18 08:33N 39°16' W 076°35'0 0.0
2016-Jun-18 07:30N 39°16' W 076°35'0 0.0
2016-Jun-18 06:33N 39°16' W 076°35'0 0.0
2016-Jun-18 05:33N 39°16' W 076°35'0 0.0
2016-Jun-18 04:30N 39°16' W 076°35'0 0.0
2016-Jun-18 03:32N 39°16' W 076°35'0 0.0
2016-Jun-18 02:32N 39°16' W 076°35'0 0.0
2016-Jun-18 01:32N 39°16' W 076°35'0 0.0
2016-Jun-18 00:32N 39°16' W 076°35'0 0.0
2016-Jun-17 23:32N 39°16' W 076°35'0 0.0
2016-Jun-17 22:32N 39°16' W 076°35'0 0.0
2016-Jun-17 21:32N 39°16' W 076°35'0 0.0
2016-Jun-17 20:32N 39°16' W 076°35'0 0.0
2016-Jun-17 19:32N 39°16' W 076°35'0 0.0
2016-Jun-17 18:32N 39°16' W 076°35'0 0.0
2016-Jun-17 17:32N 39°16' W 076°35'0 0.0
2016-Jun-17 16:32N 39°16' W 076°35'0 0.0
2016-Jun-17 15:33N 39°16' W 076°35'0 0.0
2016-Jun-17 14:33N 39°16' W 076°35'0 0.0
2016-Jun-17 13:33N 39°16' W 076°35'0 0.0
2016-Jun-17 12:33N 39°16' W 076°35'0 0.0
2016-Jun-17 11:33N 39°16' W 076°35'0 0.0
2016-Jun-17 10:33N 39°16' W 076°35'0 0.0
2016-Jun-17 09:33N 39°16' W 076°35'0 0.0
2016-Jun-17 08:33N 39°16' W 076°35'  
Track history (hours):
 
Tides and Currents Weather Stations Pressure Air Temp Water Temp Dewpoint Dewpoint Depression Visibility Wind Speed Wind Dir Waves Ship Positions

C. Angelo

Owner: G T 110 INC, NEW HAVEN, CT. More information available from US FCC via Universal Licensing System and Coast Guard Vessel Documentation Center.

Last reported at 2016-Jun-27 08:33 UTC. Time now 2016-Jun-27 09:35 UTC.
Position N 40°29' W 073°56'.

Length 30 m; draft 4 m.

Type: Tug. MMSI: 366988420.

Date/timePositionNaut miles runAvg speedWind from/ knotsBaromVisibWave heightAir tempDewpointWater temp
2016-Jun-27 08:33N 40°29' W 073°56'6 6.5
2016-Jun-27 07:34N 40°23' W 073°54'6 6.3
2016-Jun-27 06:34N 40°16' W 073°54'7 6.5
2016-Jun-27 05:33N 40°10' W 073°54'7 6.6
2016-Jun-27 04:34N 40°03' W 073°55'7 6.8
2016-Jun-27 03:33N 39°57' W 073°56'7 6.6
2016-Jun-27 02:34N 39°50' W 073°58'6 6.5
2016-Jun-27 01:33N 39°44' W 073°60'7 6.7
2016-Jun-27 00:33N 39°39' W 074°05'7 6.6
2016-Jun-26 23:33N 39°33' W 074°10'7 6.8
2016-Jun-26 22:33N 39°27' W 074°14'7 6.6
2016-Jun-26 21:33N 39°22' W 074°19'7 6.8
2016-Jun-26 20:33N 39°17' W 074°25'7 7.0
2016-Jun-26 19:33N 39°11' W 074°30'7 6.9
2016-Jun-26 18:33N 39°05' W 074°35'7 6.6
2016-Jun-26 17:33N 39°00' W 074°40'7 6.6
2016-Jun-26 16:33N 38°55' W 074°45'7 6.9
2016-Jun-26 15:33N 38°50' W 074°51'6 6.4
2016-Jun-26 14:33N 38°48' W 074°59'6 5.8
2016-Jun-26 13:33N 38°52' W 075°05'8 7.6
2016-Jun-26 12:33N 38°59' W 075°08'9 8.8
2016-Jun-26 11:33N 39°07' W 075°13'9 9.3
2016-Jun-26 10:33N 39°15' W 075°20'9 8.9
2016-Jun-26 09:33N 39°22' W 075°27'7 7.4
2016-Jun-26 08:33N 39°27' W 075°34'5 5.3
2016-Jun-26 07:33N 39°33' W 075°33'2 2.2
2016-Jun-26 06:33N 39°33' W 075°35'6 6.2
2016-Jun-26 05:33N 39°33' W 075°43'7 7.2
2016-Jun-26 04:33N 39°31' W 075°52'7 7.1
2016-Jun-26 03:33N 39°27' W 075°60'7 6.5
2016-Jun-26 02:33N 39°23' W 076°06'7 7.0
2016-Jun-26 01:33N 39°19' W 076°13'7 6.9
2016-Jun-26 00:33N 39°12' W 076°16'5 5.2
2016-Jun-25 23:30N 39°09' W 076°22'6 6.0
2016-Jun-25 22:33N 39°12' W 076°29'1 1.0
2016-Jun-25 21:33N 39°13' W 076°29'0 0.0
2016-Jun-25 20:33N 39°13' W 076°29'0 0.0
2016-Jun-25 19:33N 39°13' W 076°29'0 0.0
2016-Jun-25 18:33N 39°13' W 076°29'0 0.0
2016-Jun-25 17:33N 39°13' W 076°29'0 0.0
2016-Jun-25 16:33N 39°13' W 076°29'0 0.0
2016-Jun-25 15:33N 39°13' W 076°29'0 0.0
2016-Jun-25 14:33N 39°13' W 076°29'0 0.0
2016-Jun-25 13:33N 39°13' W 076°29'0 0.0
2016-Jun-25 12:33N 39°13' W 076°29'0 0.0
2016-Jun-25 11:33N 39°13' W 076°29'0 0.0
2016-Jun-25 10:33N 39°13' W 076°29'0 0.0
2016-Jun-25 09:33N 39°13' W 076°29'0 0.0
2016-Jun-25 08:33N 39°13' W 076°29'0 0.0
2016-Jun-25 07:33N 39°13' W 076°29'0 0.0
2016-Jun-25 06:33N 39°13' W 076°29'0 0.0
2016-Jun-25 05:33N 39°13' W 076°29'0 0.0
2016-Jun-25 04:33N 39°13' W 076°29'0 0.0
2016-Jun-25 03:33N 39°13' W 076°29'0 0.0
2016-Jun-25 02:33N 39°13' W 076°29'0 0.0
2016-Jun-25 01:33N 39°13' W 076°29'0 0.0
2016-Jun-25 00:33N 39°13' W 076°29'0 0.0
2016-Jun-24 23:33N 39°13' W 076°29'0 0.0
2016-Jun-24 22:33N 39°13' W 076°29'0 0.0
2016-Jun-24 21:33N 39°13' W 076°29'0 0.0
2016-Jun-24 20:33N 39°13' W 076°29'0 0.0
2016-Jun-24 19:33N 39°13' W 076°29'0 0.0
2016-Jun-24 18:33N 39°13' W 076°29'0 0.0
2016-Jun-24 17:33N 39°13' W 076°29'0 0.0
2016-Jun-24 16:33N 39°13' W 076°29'0 0.0
2016-Jun-24 15:33N 39°13' W 076°29'0 0.0
2016-Jun-24 14:33N 39°13' W 076°29'0 0.0
2016-Jun-24 13:33N 39°13' W 076°29'0 0.0
2016-Jun-24 12:33N 39°13' W 076°29'0 0.0
2016-Jun-24 11:33N 39°13' W 076°29'1 0.9
2016-Jun-24 10:33N 39°12' W 076°29'5 5.3
2016-Jun-24 09:33N 39°10' W 076°23'3 2.7
2016-Jun-24 08:29N 39°08' W 076°19'8 8.8
2016-Jun-24 07:33N 39°15' W 076°14'25 8.4
2016-Jun-24 04:33N 39°32' W 075°50'8 7.7
2016-Jun-24 03:33N 39°33' W 075°40'6 5.7
2016-Jun-24 02:33N 39°31' W 075°33'9 8.6
2016-Jun-24 01:33N 39°23' W 075°29'9 8.9
2016-Jun-24 00:33N 39°17' W 075°21'9 8.7
2016-Jun-23 23:33N 39°10' W 075°15'9 8.9
2016-Jun-23 22:33N 39°02' W 075°09'50 6.2
2016-Jun-23 14:29N 39°28' W 074°14'10 9.1
2016-Jun-23 13:25N 39°36' W 074°06'8 9.1
2016-Jun-23 12:33N 39°42' W 074°00'9 8.9
2016-Jun-23 11:33N 39°51' W 073°58'9 9.1
2016-Jun-23 10:33N 39°60' W 073°56'9 9.3
2016-Jun-23 09:33N 40°09' W 073°54'19 9.1
2016-Jun-23 07:31N 40°28' W 073°55'15 7.7
2016-Jun-23 05:33N 40°43' W 073°59'1 0.0
2016-Jun-21 21:33N 40°44' W 073°58'1 1.2
2016-Jun-21 20:33N 40°42' W 073°58'0 0.0
2016-Jun-21 19:33N 40°42' W 073°58'0 0.0
2016-Jun-21 18:31N 40°42' W 073°58'0 0.0
2016-Jun-21 17:32N 40°42' W 073°58'0 0.0
2016-Jun-21 16:32N 40°42' W 073°58'0 0.0
2016-Jun-21 15:33N 40°42' W 073°58'0 0.0
2016-Jun-21 14:33N 40°42' W 073°58'0 0.0
2016-Jun-21 13:31N 40°42' W 073°58'0 0.0
2016-Jun-21 12:33N 40°42' W 073°58'0 0.0
2016-Jun-21 11:32N 40°42' W 073°58'0 0.0
2016-Jun-21 10:33N 40°42' W 073°58'0 0.0
2016-Jun-21 09:34N 40°42' W 073°58'0 0.0
2016-Jun-21 08:31N 40°42' W 073°58'0 0.0
2016-Jun-21 07:31N 40°42' W 073°58'0 0.0
2016-Jun-21 06:34N 40°42' W 073°58'0 0.0
2016-Jun-21 04:34N 40°42' W 073°58'0 0.0
2016-Jun-21 03:34N 40°42' W 073°58'0 0.0
2016-Jun-21 02:34N 40°42' W 073°58'0 0.0
2016-Jun-21 01:34N 40°42' W 073°58'0 0.0
2016-Jun-21 00:34N 40°42' W 073°58'0 0.0
2016-Jun-20 23:33N 40°42' W 073°58'0 0.0
2016-Jun-20 22:34N 40°42' W 073°58'0 0.0
2016-Jun-20 21:33N 40°42' W 073°58'0 0.0
2016-Jun-20 20:33N 40°42' W 073°58'0 0.0
2016-Jun-20 19:34N 40°42' W 073°58'0 0.0
2016-Jun-20 18:34N 40°42' W 073°58'0 0.0
2016-Jun-20 17:34N 40°42' W 073°58'0 0.0
2016-Jun-20 16:34N 40°42' W 073°58'0 0.0
2016-Jun-20 15:34N 40°42' W 073°58'0 0.3
2016-Jun-20 14:34N 40°42' W 073°59'5 5.3
2016-Jun-20 13:34N 40°39' W 074°03'4 3.8
2016-Jun-20 12:34N 40°35' W 074°01'1 0.5
2016-Jun-20 11:34N 40°36' W 074°02'0 0.2
2016-Jun-20 10:33N 40°35' W 074°02'0 0.5
2016-Jun-20 09:33N 40°35' W 074°02'5 5.5
2016-Jun-20 08:33N 40°30' W 073°58'18 6.0
2016-Jun-20 05:33N 40°13' W 073°54'6 6.0
2016-Jun-20 04:33N 40°07' W 073°54'14 6.0
2016-Jun-20 02:18N 39°53' W 073°57'5 6.2
2016-Jun-20 01:33N 39°49' W 073°58'6 6.5
2016-Jun-20 00:33N 39°43' W 074°00'6 6.4
2016-Jun-19 23:33N 39°37' W 074°05'6 6.4
2016-Jun-19 22:33N 39°32' W 074°10'6 6.3
2016-Jun-19 21:33N 39°27' W 074°14'6 6.1
2016-Jun-19 20:33N 39°22' W 074°19'44 6.1
2016-Jun-19 13:18N 38°48' W 074°56'4 5.7
2016-Jun-19 12:34N 38°49' W 075°01'5 5.2
2016-Jun-19 11:33N 38°53' W 075°04'6 5.9
2016-Jun-19 10:33N 38°59' W 075°07'7 6.8
2016-Jun-19 09:33N 39°05' W 075°11'8 7.9
2016-Jun-19 08:34N 39°11' W 075°17'9 9.5
2016-Jun-19 07:33N 39°19' W 075°24'10 9.9
2016-Jun-19 06:34N 39°26' W 075°33'7 6.7
2016-Jun-19 05:34N 39°33' W 075°33'3 3.4
2016-Jun-19 04:34N 39°33' W 075°37'4 4.3
2016-Jun-19 03:34N 39°33' W 075°43'5 4.7
2016-Jun-19 02:34N 39°32' W 075°49'6 5.5
2016-Jun-19 01:34N 39°30' W 075°56'6 6.5
2016-Jun-19 00:34N 39°25' W 076°01'7 6.7
2016-Jun-18 23:34N 39°22' W 076°09'7 6.7
2016-Jun-18 22:33N 39°16' W 076°14'7 6.6
2016-Jun-18 21:33N 39°10' W 076°18'4 4.5
2016-Jun-18 20:33N 39°10' W 076°23'6 6.0
2016-Jun-18 19:33N 39°12' W 076°31'5 4.8
2016-Jun-18 18:28N 39°16' W 076°35'0 0.0
2016-Jun-18 17:28N 39°16' W 076°35'0 0.0
2016-Jun-18 16:33N 39°16' W 076°35'0 0.0
2016-Jun-18 15:33N 39°16' W 076°35'0 0.0
2016-Jun-18 14:33N 39°16' W 076°35'0 0.0
2016-Jun-18 13:33N 39°16' W 076°35'0 0.0
2016-Jun-18 12:33N 39°16' W 076°35'0 0.0
2016-Jun-18 11:33N 39°16' W 076°35'0 0.0
2016-Jun-18 10:33N 39°16' W 076°35'0 0.0
2016-Jun-18 09:24N 39°16' W 076°35'0 0.0
2016-Jun-18 08:33N 39°16' W 076°35'0 0.0
2016-Jun-18 07:30N 39°16' W 076°35'0 0.0
2016-Jun-18 06:33N 39°16' W 076°35'0 0.0
2016-Jun-18 05:33N 39°16' W 076°35'0 0.0
2016-Jun-18 04:30N 39°16' W 076°35'0 0.0
2016-Jun-18 03:32N 39°16' W 076°35'0 0.0
2016-Jun-18 02:32N 39°16' W 076°35'0 0.0
2016-Jun-18 01:32N 39°16' W 076°35'0 0.0
2016-Jun-18 00:32N 39°16' W 076°35'0 0.0
2016-Jun-17 23:32N 39°16' W 076°35'0 0.0
2016-Jun-17 22:32N 39°16' W 076°35'0 0.0
2016-Jun-17 21:32N 39°16' W 076°35'0 0.0
2016-Jun-17 20:32N 39°16' W 076°35'0 0.0
2016-Jun-17 19:32N 39°16' W 076°35'0 0.0
2016-Jun-17 18:32N 39°16' W 076°35'0 0.0
2016-Jun-17 17:32N 39°16' W 076°35'0 0.0
2016-Jun-17 16:32N 39°16' W 076°35'0 0.0
2016-Jun-17 15:33N 39°16' W 076°35'0 0.0
2016-Jun-17 14:33N 39°16' W 076°35'0 0.0
2016-Jun-17 13:33N 39°16' W 076°35'0 0.0
2016-Jun-17 12:33N 39°16' W 076°35'0 0.0
2016-Jun-17 11:33N 39°16' W 076°35'0 0.0
2016-Jun-17 10:33N 39°16' W 076°35'0 0.0
2016-Jun-17 09:33N 39°16' W 076°35'0 0.0
2016-Jun-17 08:33N 39°16' W 076°35'  

Dump ship's entire track history